AirNav   Air Wisconsin pilot careers
 
 334 users online  

61D Plainwell Municipal Airport
Plainwell, Michigan, USA

GOING TO PLAINWELL?


FAA INFORMATION EFFECTIVE 28 FEBRUARY 2019

Location

FAA Identifier: 61D
Lat/Long: 42-28-04.0553N / 085-38-52.9659W
42-28.067588N / 085-38.882765W
42.4677931 / -85.6480461
(estimated)
Elevation: 722 ft. / 220 m (estimated)
Variation: 03W (1985)
From city: 2 miles N of PLAINWELL, MI
Time zone: UTC -5 (UTC -4 during Daylight Saving Time)
Zip code: 49080

Airport Operations

Airport use: Open to the public
Activation date: 09/1946
Control tower: no
ARTCC: CHICAGO CENTER
FSS: LANSING FLIGHT SERVICE STATION
NOTAMs facility: LAN (NOTAM-D service available)
Attendance: IREG
Wind indicator: lighted
Segmented circle: no
Lights: FOR LIRL RY 09/27 KEY 122.8 5 TIMES ON.

Airport Communications

CTAF/UNICOM: 122.8
WX ASOS at AZO (15 nm S): 127.25 (269-459-3391)

Nearby radio navigation aids

VOR radial/distance  VOR name  Freq  Var
AZOr344/14.5KALAMAZOO VOR/DME109.0001W
PMMr090/20.2PULLMAN VOR/DME112.1000E
VIOr203/20.3VICTORY VOR/DME115.9504W
ELXr047/28.6KEELER VOR/DME116.6000E

Airport Services

Fuel available: 100LL
Parking: tiedowns
Airframe service: MAJOR
Powerplant service: MAJOR
Bottled oxygen: NONE
Bulk oxygen: NONE

Runway Information

Runway 9/27

Dimensions: 2650 x 50 ft. / 808 x 15 m
Surface: asphalt, in poor condition
EXTSV RY CRACKING. LOOSE STONES AND AGGREGATE.
Runway edge lights: low intensity
RUNWAY 9  RUNWAY 27
Latitude: 42-28.048333N42-28.053333N
Longitude: 085-39.126667W085-38.538333W
Elevation: 722.0 ft.722.0 ft.
Traffic pattern: leftleft
Runway heading: 092 magnetic, 089 true272 magnetic, 269 true
Displaced threshold: 191 ft.775 ft.
Markings: basic, in fair conditionbasic, in fair condition
Runway end identifier lights: nono
Obstructions: 17 ft. road, 201 ft. from runway
4 FT FENCE, 50 FT DST FM RY END; 17 FT RD, 140 FT FM RY END.
55 ft. trees, 201 ft. from runway
4 FT FENCE 62 FT FM RY END, 15 FT ROAD, 100 FT FM RY END, 40 FT TREE, 155 FT FM RY END.

Runway 1/19

Dimensions: 2550 x 100 ft. / 777 x 30 m
Surface: turf, in good condition
Runway edge markings: 01/19 & DSPLCD THLDS MKD WITH YELLOW CONES.
RUNWAY 1  RUNWAY 19
Latitude: 42-27.876667N42-28.293333N
Longitude: 085-38.970000W085-38.900000W
Elevation: 722.0 ft.722.0 ft.
Traffic pattern: leftleft
Runway heading: 010 magnetic, 007 true190 magnetic, 187 true
Displaced threshold: 268 ft.980 ft.
Runway end identifier lights: nono
Obstructions: 40 ft. tree, 120 ft. from runway, 120 ft. right of centerline, 3:1 slope to clear
APCH RATIO 1:1 TO DSPLCD THLD BASED ON 50 FT TREE 30 FT FM DSPLCD THLD 150 FT R, 20:1 BASED ON STRAIGHT OUT.
70 ft. trees, 96 ft. from runway, 1:1 slope to clear
APCH RATIO 8:1 TO DSPLCD THLD BASED ON 50 FT TREES 360 FT FM DSPLCD THLD 105R, 15:1 BASED ON STRAIGHT OUT.

Airport Ownership and Management from official FAA records

Ownership: Publicly-owned
Owner: CITY OF PLAINWELL
211 N. MAIN
PLAINWELL, MI 49080-1397
Phone 269-685-6821
Manager: VIRGIL WILLIAMS
132 COUNTRY CLUB
PLAINWELL, MI 49080
Phone 269-685-6268

Airport Operational Statistics

Aircraft based on the field: 21
Single engine airplanes: 21
    
Aircraft operations: avg 77/week *
50% transient general aviation
50% local general aviation
* for 12-month period ending 31 December 2016

Additional Remarks

FOR FLD COND. CALL MGR RES. 269-685-6268.

Instrument Procedures

There are no published instrument procedures at 61D.

Some nearby airports with instrument procedures:

35D - Padgham Field Airport (9 nm NW)
KAZO - Kalamazoo/Battle Creek International Airport (15 nm S)
9D9 - Hastings Airport (18 nm NE)
KBTL - W K Kellogg Airport (20 nm SE)
KGRR - Gerald R Ford International Airport (25 nm N)
 
Loc | Ops | Rwys | IFR | FBO | Links
Com | Nav | Svcs | Stats | Notes
Area around 61D (Plainwell Municipal Airport)
 
Road maps at: MapQuest Bing Google
 
Aerial photo
WARNING: Photo may not be current or correct
Aerial photo of 61D (Plainwell Municipal Airport)
Do you have a better or more recent aerial photo of Plainwell Municipal Airport that you would like to share? If so, please send us your photo.

 
Sectional chart

 
Airport distance calculator
Flying to Plainwell Municipal Airport? Find the distance to fly.

From to 61D

Sunrise and sunset
Times for 22-Mar-2019
 Local
(UTC-4)
 Zulu
(UTC)
Morning civil twilight07:1511:15
Sunrise07:4311:43
Sunset19:5623:56
Evening civil twilight20:2400:24

Current date and time
Zulu (UTC)  22-Mar-2019 06:08:07
Local (UTC-4)  22-Mar-2019 02:08:07
 
METAR
KAZO 
15nm S 
220553Z AUTO 24007KT 6SM BR CLR 01/M01 A2986 RMK AO2 SLP119 T00061011 10033 20000 56018
KBTL 
20nm SE 
220553Z AUTO 24008KT 8SM CLR 01/M01 A2984 RMK AO2 SLP114 T00061011 10028 20000 58019
KGRR 
26nm N 
220553Z AUTO 26008KT 5SM BR CLR 01/M01 A2984 RMK AO2 SLP111 T00111011 10033 20006 58013
KBIV 
26nm NW 
220553Z AUTO 28008KT 10SM CLR 03/00 A2986 RMK AO2 SLP117 T00330000 10033 20000 $
KLWA 
28nm W 
220556Z AUTO 26007KT 10SM CLR 03/01 A2989 RMK AO2 T00310007 10042 20008 400510008
TAF
KAZO 
15nm S 
220540Z 2206/2306 22006KT 6SM BR SKC FM221500 34016G23KT P6SM VCSH BKN035 FM230000 33007KT P6SM SKC
NOTAMs
Click for the latest NOTAMs
NOTAMs are issued by the DoD/FAA and will open in a separate window not controlled by AirNav.

 

 
 

FBO, Fuel Providers, and Aircraft Ground Support

  
 Business Name 
 
 Contact 
 
 Services / Description 
 
Fuel Prices
 
Comments
  
City of Plainwell (self-serve fuel) 269-685-6268
[web site]
[email]
Airport management, Aviation fuel

More info about City of Plainwell (self-serve fuel)
Avfuel
100LL
SS $4.69 
 Updated 19-Mar-2019
 
   write
SS=Self service
Update Fuel Prices
 

Where to Eat: Catering, Restaurants, Food shops

  
 Business Name 
 
 Contact 
 
 Services / Description 
 
Distance
 
Comments
  
Fly Inn Again 269-685-1554
no information available

If you are affiliated with Fly Inn Again and would like to show here your services, contact info, web link, logo, and more, click here
on airport  
   1 read write
 

Would you like to see your business listed on this page?

 If your business provides an interesting product or service to pilots, flight crews, aircraft, or users of the Plainwell Municipal Airport, you should consider listing it here.  To start the listing process, click on the button below
 
Add a business
 

Other Pages about Plainwell Municipal Airport

www.plainwell.org/...
Page from the Michigan Airport Directory (PDF)
 
Update a link
 
Copyright © AirNav, LLC. All rights reserved. Privacy Policy  Contact